createdAt,value
2022-12-14T00:01:34.537Z,53.03
2022-12-14T00:04:01.149Z,53.26
2022-12-14T00:06:32.734Z,54.01
2022-12-14T00:09:02.177Z,53.87
2022-12-14T00:11:29.209Z,54.14
2022-12-14T00:13:58.610Z,53.92
2022-12-14T00:16:28.081Z,53.77
2022-12-14T00:18:56.976Z,53.78
2022-12-14T00:21:23.856Z,54.34
2022-12-14T00:23:52.343Z,53.84
2022-12-14T00:26:21.799Z,53.87
2022-12-14T00:28:50.185Z,53.46
2022-12-14T00:31:17.102Z,53.44
2022-12-14T00:33:44.447Z,52.89
2022-12-14T00:36:12.622Z,53.16
2022-12-14T00:38:40.545Z,53.12
2022-12-14T00:41:08.104Z,52.73
2022-12-14T00:43:35.086Z,52.35
2022-12-14T00:46:01.827Z,52.91
2022-12-14T00:48:29.536Z,52.83
2022-12-14T00:50:56.780Z,53.26
2022-12-14T00:53:24.401Z,53.10
2022-12-14T00:55:51.569Z,52.91
2022-12-14T00:58:20.616Z,53.05
2022-12-14T01:00:48.623Z,52.46
2022-12-14T01:03:15.916Z,52.74
2022-12-14T01:05:49.036Z,52.59
2022-12-14T01:08:17.017Z,53.03
2022-12-14T01:10:43.684Z,52.83
2022-12-14T01:13:11.467Z,53.07
2022-12-14T01:15:38.340Z,52.80
2022-12-14T01:18:05.145Z,52.72
2022-12-14T01:20:31.909Z,52.70
2022-12-14T01:22:58.668Z,52.82
2022-12-14T01:25:25.452Z,53.13
2022-12-14T01:27:53.317Z,53.60
2022-12-14T01:30:21.136Z,53.07
2022-12-14T01:32:47.928Z,53.22
2022-12-14T01:35:14.882Z,52.80
2022-12-14T01:37:41.519Z,53.57
2022-12-14T01:40:09.080Z,53.31
2022-12-14T01:42:36.802Z,53.32
2022-12-14T01:45:05.251Z,53.67
2022-12-14T01:47:44.324Z,53.66
2022-12-14T01:50:23.344Z,53.95
2022-12-14T01:52:52.885Z,53.59
2022-12-14T01:55:22.774Z,53.76
2022-12-14T01:58:12.245Z,52.97
2022-12-14T02:00:39.270Z,52.30
2022-12-14T02:03:22.032Z,52.87
2022-12-14T02:05:53.774Z,52.16
2022-12-14T02:08:22.794Z,51.97
2022-12-14T02:10:50.812Z,52.52
2022-12-14T02:13:32.208Z,51.79
2022-12-14T02:15:59.221Z,51.77
2022-12-14T02:18:28.741Z,52.07
2022-12-14T02:21:20.207Z,52.24
2022-12-14T02:24:10.991Z,52.14
2022-12-14T02:26:54.969Z,51.98
2022-12-14T02:29:27.404Z,52.38
2022-12-14T02:32:08.722Z,51.87
2022-12-14T02:34:38.201Z,52.71
2022-12-14T02:37:36.476Z,53.20
2022-12-14T02:40:12.017Z,53.24
2022-12-14T02:42:53.822Z,53.36
2022-12-14T02:45:56.006Z,53.70
2022-12-14T02:48:26.415Z,53.50
2022-12-14T02:51:16.203Z,53.41
2022-12-14T02:53:48.441Z,53.45
2022-12-14T02:56:22.535Z,53.59
2022-12-14T02:58:51.081Z,53.15
2022-12-14T03:01:26.007Z,53.42
2022-12-14T03:03:52.864Z,53.00
2022-12-14T03:06:27.795Z,53.42
2022-12-14T03:09:08.357Z,53.19
2022-12-14T03:11:45.784Z,53.41
2022-12-14T03:14:42.660Z,53.39
2022-12-14T03:17:19.618Z,53.06
2022-12-14T03:19:53.675Z,53.70
2022-12-14T03:22:46.372Z,53.74
2022-12-14T03:25:18.916Z,53.86
2022-12-14T03:27:53.817Z,53.99
2022-12-14T03:30:43.918Z,54.63
2022-12-14T03:33:13.598Z,53.90
2022-12-14T03:35:49.989Z,54.27
2022-12-14T03:38:20.857Z,53.92
2022-12-14T03:40:57.807Z,53.80
2022-12-14T03:43:37.708Z,53.87
2022-12-14T03:46:14.153Z,55.10
2022-12-14T03:49:13.080Z,55.16
2022-12-14T03:52:12.992Z,54.71
2022-12-14T03:54:47.620Z,54.20
2022-12-14T03:57:22.092Z,55.57
2022-12-14T04:00:18.560Z,55.48
2022-12-14T04:03:10.199Z,55.16
2022-12-14T04:05:51.964Z,55.15
2022-12-14T04:08:50.785Z,55.48
2022-12-14T04:11:39.110Z,55.92
2022-12-14T04:14:32.109Z,56.04
2022-12-14T04:17:22.227Z,56.74
2022-12-14T04:20:02.180Z,56.78
2022-12-14T04:22:34.292Z,56.34
2022-12-14T04:25:24.136Z,56.83
2022-12-14T04:28:03.181Z,56.78
2022-12-14T04:30:38.063Z,56.49
2022-12-14T04:33:28.952Z,56.57
2022-12-14T04:35:58.865Z,56.85
2022-12-14T04:38:34.672Z,56.65
2022-12-14T04:41:06.601Z,56.55
2022-12-14T04:43:39.277Z,55.72
2022-12-14T04:46:12.599Z,55.85
2022-12-14T04:48:55.497Z,56.20
2022-12-14T04:51:31.519Z,56.14
2022-12-14T04:54:04.899Z,55.80
2022-12-14T04:56:40.213Z,55.50
2022-12-14T04:59:07.879Z,55.73
2022-12-14T05:02:10.063Z,55.69
2022-12-14T05:05:01.893Z,55.66
2022-12-14T05:07:51.039Z,55.30
2022-12-14T05:10:40.372Z,55.69
2022-12-14T05:13:14.564Z,55.86
2022-12-14T05:15:46.692Z,56.47
2022-12-14T05:18:13.962Z,57.07
2022-12-14T05:20:40.703Z,57.37
2022-12-14T05:23:07.720Z,56.95
2022-12-14T05:25:34.838Z,57.46
2022-12-14T05:28:01.569Z,57.51
2022-12-14T05:30:28.852Z,57.10
2022-12-14T05:32:55.641Z,57.67
2022-12-14T05:35:22.314Z,57.76
2022-12-14T05:37:49.400Z,57.23
2022-12-14T05:40:16.634Z,57.52
2022-12-14T05:42:46.059Z,57.85
2022-12-14T05:45:14.939Z,57.47
2022-12-14T05:47:41.534Z,57.25
2022-12-14T05:50:09.059Z,57.16
2022-12-14T05:52:35.775Z,56.81
2022-12-14T05:55:04.669Z,55.80
2022-12-14T05:57:32.122Z,55.83
2022-12-14T05:59:58.789Z,55.60
2022-12-14T06:02:25.754Z,55.44
2022-12-14T06:04:52.552Z,55.68
2022-12-14T06:07:23.155Z,55.60
2022-12-14T06:09:54.164Z,55.88
2022-12-14T06:12:20.975Z,55.76
2022-12-14T06:14:47.835Z,56.30
2022-12-14T06:17:14.573Z,56.53
2022-12-14T06:19:41.215Z,57.11
2022-12-14T06:22:08.027Z,56.75
2022-12-14T06:24:34.675Z,56.73
2022-12-14T06:27:01.380Z,56.82
2022-12-14T06:29:28.101Z,57.27
2022-12-14T06:31:54.777Z,57.92
2022-12-14T06:34:28.042Z,57.14
2022-12-14T06:36:55.269Z,57.09
2022-12-14T06:39:21.970Z,58.19
2022-12-14T06:41:50.650Z,58.69
2022-12-14T06:44:17.497Z,59.35
2022-12-14T06:46:44.816Z,60.04
2022-12-14T06:49:14.777Z,60.73
2022-12-14T06:51:42.052Z,61.37
2022-12-14T06:54:10.991Z,62.38
2022-12-14T06:56:38.708Z,62.90
2022-12-14T06:59:05.441Z,63.17
2022-12-14T07:01:32.562Z,63.41
2022-12-14T07:03:59.715Z,63.35
2022-12-14T07:06:31.499Z,63.00
2022-12-14T07:08:59.227Z,63.16
2022-12-14T07:11:27.860Z,63.71
2022-12-14T07:13:55.326Z,63.43
2022-12-14T07:16:26.019Z,63.62
2022-12-14T07:18:54.427Z,63.43
2022-12-14T07:21:22.203Z,63.22
2022-12-14T07:23:51.673Z,63.06
2022-12-14T07:26:21.096Z,61.96
2022-12-14T07:28:49.179Z,62.13
2022-12-14T07:31:24.085Z,62.30
2022-12-14T07:33:56.221Z,62.39
2022-12-14T07:36:24.640Z,63.10
2022-12-14T07:38:52.010Z,63.87
2022-12-14T07:41:23.383Z,63.42
2022-12-14T07:43:51.800Z,64.24
2022-12-14T07:46:21.411Z,64.33
2022-12-14T07:48:51.451Z,64.09
2022-12-14T07:51:23.241Z,64.13
2022-12-14T07:53:50.681Z,64.81
2022-12-14T07:56:29.764Z,64.57
2022-12-14T07:58:58.018Z,64.06
2022-12-14T08:01:27.256Z,64.10
2022-12-14T08:04:00.118Z,64.22
2022-12-14T08:06:28.903Z,64.74
2022-12-14T08:08:55.899Z,64.92
2022-12-14T08:11:23.631Z,64.99
2022-12-14T08:14:13.518Z,64.53
2022-12-14T08:16:40.406Z,65.07
2022-12-14T08:19:07.108Z,64.57
2022-12-14T08:21:33.797Z,64.99
2022-12-14T08:24:00.606Z,65.32
2022-12-14T08:26:34.984Z,65.28
2022-12-14T08:29:02.618Z,64.52
2022-12-14T08:31:29.533Z,65.47
2022-12-14T08:33:59.059Z,65.21
2022-12-14T08:36:28.230Z,64.62
2022-12-14T08:38:56.801Z,64.55
2022-12-14T08:41:25.047Z,64.71
2022-12-14T08:43:56.929Z,64.96
2022-12-14T08:46:24.974Z,65.06
2022-12-14T08:48:53.377Z,64.54
2022-12-14T08:51:20.458Z,64.33
2022-12-14T08:53:47.951Z,64.03
2022-12-14T08:56:21.333Z,63.38
2022-12-14T08:58:48.263Z,62.86
2022-12-14T09:01:32.325Z,62.46
2022-12-14T09:04:07.668Z,62.74
2022-12-14T09:06:38.046Z,62.53
2022-12-14T09:09:15.562Z,61.84
2022-12-14T09:11:44.295Z,61.19
2022-12-14T09:14:11.343Z,61.59
2022-12-14T09:16:38.303Z,62.31
2022-12-14T09:19:05.998Z,62.21
2022-12-14T09:21:32.770Z,62.35
2022-12-14T09:24:00.108Z,62.08
2022-12-14T09:26:27.436Z,62.60
2022-12-14T09:28:56.537Z,62.29
2022-12-14T09:31:25.676Z,62.28
2022-12-14T09:33:52.773Z,62.11
2022-12-14T09:36:22.391Z,61.26
2022-12-14T09:38:51.962Z,61.76
2022-12-14T09:41:34.569Z,61.14
2022-12-14T09:44:31.193Z,61.56
2022-12-14T09:47:04.124Z,61.47
2022-12-14T09:49:36.708Z,60.53
2022-12-14T09:52:09.505Z,60.23
2022-12-14T09:54:38.370Z,60.68
2022-12-14T09:57:20.236Z,59.98
2022-12-14T09:59:46.907Z,60.19
2022-12-14T10:02:31.072Z,60.44
2022-12-14T10:05:17.072Z,60.29
2022-12-14T10:08:19.260Z,59.77
2022-12-14T10:11:10.304Z,60.18
2022-12-14T10:14:06.461Z,60.66
2022-12-14T10:16:49.957Z,60.71
2022-12-14T10:19:41.849Z,60.15
2022-12-14T10:22:34.956Z,60.22
2022-12-14T10:25:16.514Z,59.59
2022-12-14T10:28:10.432Z,59.41
2022-12-14T10:30:38.438Z,59.26
2022-12-14T10:33:16.909Z,60.28
2022-12-14T10:35:55.148Z,60.85
2022-12-14T10:38:31.413Z,60.25
2022-12-14T10:41:43.619Z,60.54
2022-12-14T10:44:59.787Z,60.72
2022-12-14T10:47:42.714Z,61.33
2022-12-14T10:50:28.791Z,61.85
2022-12-14T10:52:56.501Z,61.71
2022-12-14T10:55:28.077Z,61.72
2022-12-14T10:57:55.572Z,62.34
2022-12-14T11:00:23.425Z,62.20
2022-12-14T11:02:55.442Z,62.56
2022-12-14T11:05:42.943Z,61.33
2022-12-14T11:08:32.479Z,62.66
2022-12-14T11:11:12.693Z,61.94
2022-12-14T11:14:08.247Z,62.01
2022-12-14T11:16:40.997Z,61.58
2022-12-14T11:19:26.829Z,61.08
2022-12-14T11:22:09.509Z,61.78
2022-12-14T11:24:45.208Z,61.42
2022-12-14T11:27:13.806Z,62.27
2022-12-14T11:29:44.427Z,61.11
2022-12-14T11:32:20.145Z,61.67
2022-12-14T11:34:57.529Z,61.10
2022-12-14T11:37:30.664Z,61.41
2022-12-14T11:40:07.193Z,60.84
2022-12-14T11:42:34.341Z,60.93
2022-12-14T11:45:26.920Z,60.15
2022-12-14T11:48:15.354Z,60.30
2022-12-14T11:50:44.538Z,60.59
2022-12-14T11:53:14.452Z,60.66
2022-12-14T11:55:48.765Z,61.30
2022-12-14T11:58:26.458Z,61.94
2022-12-14T12:01:00.676Z,62.20
2022-12-14T12:03:46.046Z,62.18
2022-12-14T12:06:19.145Z,61.70
2022-12-14T12:08:46.568Z,60.23
2022-12-14T12:11:19.823Z,59.63
2022-12-14T12:13:51.299Z,59.72
2022-12-14T12:16:22.011Z,59.15
2022-12-14T12:18:54.479Z,58.53
2022-12-14T12:21:30.059Z,59.23
2022-12-14T12:24:05.172Z,58.64
2022-12-14T12:26:37.801Z,58.49
2022-12-14T12:29:29.320Z,58.44
2022-12-14T12:32:21.214Z,58.54
2022-12-14T12:34:54.439Z,58.77
2022-12-14T12:37:31.322Z,57.86
2022-12-14T12:40:10.335Z,58.64
2022-12-14T12:42:45.221Z,58.30
2022-12-14T12:45:36.417Z,58.66
2022-12-14T12:48:10.325Z,58.74
2022-12-14T12:50:43.029Z,59.22
2022-12-14T12:53:39.692Z,58.28
2022-12-14T12:56:48.166Z,58.56
2022-12-14T12:59:24.255Z,58.05
2022-12-14T13:01:59.082Z,58.74
2022-12-14T13:04:40.347Z,59.34
2022-12-14T13:07:34.145Z,59.13
2022-12-14T13:10:06.793Z,58.76
2022-12-14T13:12:38.459Z,58.81
2022-12-14T13:15:15.637Z,57.76
2022-12-14T13:17:49.365Z,58.14
2022-12-14T13:20:21.801Z,58.29
2022-12-14T13:22:49.629Z,58.08
2022-12-14T13:25:48.985Z,57.88
2022-12-14T13:28:37.189Z,57.86
2022-12-14T13:31:21.643Z,57.44
2022-12-14T13:34:11.618Z,57.30
2022-12-14T13:37:03.299Z,57.48
2022-12-14T13:39:39.702Z,58.21
2022-12-14T13:42:45.134Z,57.61
2022-12-14T13:45:19.583Z,57.88
2022-12-14T13:47:54.054Z,58.73
2022-12-14T13:50:37.377Z,57.93
2022-12-14T13:53:06.956Z,57.15
2022-12-14T13:55:37.754Z,56.84
2022-12-14T13:58:23.801Z,56.96
2022-12-14T14:00:55.407Z,57.58
2022-12-14T14:03:34.563Z,57.07
2022-12-14T14:06:11.361Z,57.92
2022-12-14T14:08:43.637Z,57.16
2022-12-14T14:11:38.099Z,57.35
2022-12-14T14:14:25.112Z,57.82
2022-12-14T14:16:57.768Z,57.84
2022-12-14T14:19:26.743Z,57.36
2022-12-14T14:22:24.610Z,56.76
2022-12-14T14:24:57.813Z,57.27
2022-12-14T14:27:52.144Z,57.70
2022-12-14T14:30:35.439Z,57.87
2022-12-14T14:33:43.130Z,57.88
2022-12-14T14:35:49.796Z,57.56
2022-12-14T14:38:31.078Z,57.57
2022-12-14T14:41:28.989Z,57.66
2022-12-14T14:44:02.959Z,58.04
2022-12-14T14:46:50.158Z,57.62
2022-12-14T14:49:28.253Z,58.33
2022-12-14T14:51:55.004Z,57.63
2022-12-14T14:57:53.111Z,57.83
2022-12-14T15:00:50.476Z,57.83
2022-12-14T15:03:18.541Z,58.29
2022-12-14T15:05:45.331Z,58.57
2022-12-14T15:08:40.763Z,58.57
2022-12-14T15:11:22.687Z,58.70
2022-12-14T15:14:02.600Z,57.99
2022-12-14T15:16:45.435Z,57.83
2022-12-14T15:19:36.065Z,58.43
2022-12-14T15:22:06.630Z,57.72
2022-12-14T15:24:39.254Z,58.22
2022-12-14T15:27:22.952Z,58.31
2022-12-14T15:29:51.368Z,58.82
2022-12-14T15:32:22.530Z,58.73
2022-12-14T15:34:56.009Z,58.08
2022-12-14T15:37:37.603Z,58.37
2022-12-14T15:40:11.400Z,58.90
2022-12-14T15:42:48.747Z,58.78
2022-12-14T15:45:21.417Z,58.74
2022-12-14T15:47:49.454Z,58.92
2022-12-14T15:50:17.633Z,58.42
2022-12-14T15:52:45.496Z,58.62
2022-12-14T15:55:42.683Z,58.55
2022-12-14T15:58:15.323Z,58.42
2022-12-14T16:00:46.732Z,58.75
2022-12-14T16:03:25.210Z,58.88
2022-12-14T16:05:52.322Z,59.08
2022-12-14T16:08:21.002Z,58.50
2022-12-14T16:10:51.619Z,58.79
2022-12-14T16:13:32.919Z,58.83
2022-12-14T16:16:07.340Z,58.60
2022-12-14T16:18:34.453Z,58.58
2022-12-14T16:21:03.796Z,59.65
2022-12-14T16:23:39.153Z,59.67
2022-12-14T16:26:14.670Z,59.91
2022-12-14T16:28:41.565Z,59.29
2022-12-14T16:31:11.381Z,59.03
2022-12-14T16:33:41.090Z,59.45
2022-12-14T16:36:21.157Z,59.33
2022-12-14T16:39:16.542Z,59.04
2022-12-14T16:41:55.115Z,59.98
2022-12-14T16:44:31.283Z,59.74
2022-12-14T16:47:00.829Z,59.85
2022-12-14T16:49:40.529Z,59.52
2022-12-14T16:52:09.922Z,60.22
2022-12-14T16:54:38.110Z,60.30
2022-12-14T16:57:19.891Z,59.70
2022-12-14T16:59:55.171Z,59.51
2022-12-14T17:02:55.382Z,59.06
2022-12-14T17:05:23.578Z,59.13
2022-12-14T17:07:50.540Z,59.12
2022-12-14T17:10:21.065Z,59.67
2022-12-14T17:12:49.054Z,59.61
2022-12-14T17:15:19.947Z,59.24
2022-12-14T17:17:49.828Z,59.33
2022-12-14T17:20:29.114Z,59.03
2022-12-14T17:23:01.880Z,59.05
2022-12-14T17:25:30.790Z,60.04
2022-12-14T17:27:58.482Z,59.71
2022-12-14T17:30:25.712Z,59.34
2022-12-14T17:32:54.109Z,59.80
2022-12-14T17:35:26.145Z,59.68
2022-12-14T17:37:52.910Z,59.15
2022-12-14T17:40:19.638Z,59.60
2022-12-14T17:42:51.569Z,58.42
2022-12-14T17:45:24.134Z,58.86
2022-12-14T17:47:51.308Z,59.51
2022-12-14T17:50:19.206Z,59.37
2022-12-14T17:52:46.628Z,59.87
2022-12-14T17:55:25.973Z,59.62
2022-12-14T17:57:53.790Z,60.09
2022-12-14T18:00:42.060Z,60.75
2022-12-14T18:03:10.910Z,59.92
2022-12-14T18:05:43.461Z,60.68
2022-12-14T18:08:13.407Z,60.84
2022-12-14T18:10:41.485Z,61.19
2022-12-14T18:13:11.050Z,60.94
2022-12-14T18:15:41.463Z,60.96
2022-12-14T18:18:08.416Z,61.02
2022-12-14T18:20:36.034Z,60.92
2022-12-14T18:23:02.882Z,60.59
2022-12-14T18:25:30.062Z,60.57
2022-12-14T18:27:57.405Z,60.51
2022-12-14T18:30:24.694Z,60.53
2022-12-14T18:32:51.482Z,60.39
2022-12-14T18:35:20.454Z,60.41
2022-12-14T18:37:49.514Z,60.80
2022-12-14T18:40:19.034Z,60.29
2022-12-14T18:42:46.332Z,60.30
2022-12-14T18:45:29.235Z,60.66
2022-12-14T18:47:56.305Z,61.11
2022-12-14T18:50:23.753Z,61.40
2022-12-14T18:52:50.826Z,61.00
2022-12-14T18:55:29.377Z,60.74
2022-12-14T18:57:58.744Z,61.44
2022-12-14T19:00:29.418Z,61.85
2022-12-14T19:03:04.020Z,61.76
2022-12-14T19:05:31.863Z,61.92
2022-12-14T19:08:00.223Z,61.76
2022-12-14T19:10:30.072Z,61.38
2022-12-14T19:12:57.940Z,61.00
2022-12-14T19:15:30.406Z,61.72
2022-12-14T19:17:57.617Z,62.20
2022-12-14T19:20:25.685Z,61.48
2022-12-14T19:22:52.724Z,61.33
2022-12-14T19:25:22.020Z,61.59
2022-12-14T19:30:36.947Z,61.25
2022-12-14T19:33:03.966Z,60.84
2022-12-14T19:35:31.757Z,60.92
2022-12-14T19:37:58.428Z,61.41
2022-12-14T19:40:26.121Z,61.20
2022-12-14T19:42:52.863Z,61.49
2022-12-14T19:45:19.715Z,61.76
2022-12-14T19:47:46.557Z,61.73
2022-12-14T19:50:15.034Z,61.02
2022-12-14T19:52:42.699Z,61.09
2022-12-14T19:55:10.882Z,61.28
2022-12-14T19:57:39.200Z,61.14
2022-12-14T20:00:09.954Z,61.31
2022-12-14T20:02:37.583Z,61.33
2022-12-14T20:05:05.223Z,61.49
2022-12-14T20:07:32.143Z,61.80
2022-12-14T20:09:58.796Z,62.09
2022-12-14T20:12:25.536Z,62.28
2022-12-14T20:14:52.226Z,62.62
2022-12-14T20:17:19.017Z,62.43
2022-12-14T20:19:45.686Z,62.55
2022-12-14T20:22:14.766Z,62.56
2022-12-14T20:24:42.617Z,63.08
2022-12-14T20:27:09.321Z,63.34
2022-12-14T20:29:37.097Z,63.55
2022-12-14T20:32:03.934Z,63.23
2022-12-14T20:34:30.806Z,63.56
2022-12-14T20:36:57.714Z,63.12
2022-12-14T20:39:24.460Z,63.45
2022-12-14T20:41:51.750Z,62.50
2022-12-14T20:44:18.402Z,62.60
2022-12-14T20:46:46.487Z,62.48
2022-12-14T20:49:18.678Z,62.25
2022-12-14T20:51:46.941Z,62.64
2022-12-14T20:54:17.292Z,62.57
2022-12-14T20:56:44.761Z,63.02
2022-12-14T20:59:16.614Z,63.48
2022-12-14T21:01:43.491Z,63.37
2022-12-14T21:04:10.420Z,63.06
2022-12-14T21:06:39.673Z,63.09
2022-12-14T21:09:10.104Z,62.98
2022-12-14T21:12:07.306Z,62.72
2022-12-14T21:14:39.148Z,62.73
2022-12-14T21:17:06.286Z,62.77
2022-12-14T21:19:33.122Z,62.68
2022-12-14T21:21:59.791Z,61.93
2022-12-14T21:27:22.245Z,61.95
2022-12-14T21:29:50.022Z,62.19
2022-12-14T21:32:18.517Z,61.88
2022-12-14T21:34:46.834Z,61.89
2022-12-14T21:37:14.603Z,62.23
2022-12-14T21:39:41.351Z,61.66
2022-12-14T21:42:12.716Z,62.33
2022-12-14T21:44:42.236Z,62.56
2022-12-14T21:47:12.042Z,62.38
2022-12-14T21:49:40.368Z,62.65
2022-12-14T21:52:07.804Z,62.80
2022-12-14T21:54:36.057Z,62.87
2022-12-14T21:57:21.574Z,63.22
2022-12-14T21:59:48.274Z,62.87
2022-12-14T22:02:16.688Z,62.88
2022-12-14T22:04:46.909Z,62.72
2022-12-14T22:07:18.235Z,62.80
2022-12-14T22:09:49.761Z,62.38
2022-12-14T22:12:18.079Z,62.25
2022-12-14T22:14:44.952Z,62.23
2022-12-14T22:17:14.384Z,61.67
2022-12-14T22:19:41.096Z,61.74
2022-12-14T22:22:11.806Z,62.18
2022-12-14T22:24:38.430Z,61.83
2022-12-14T22:27:06.158Z,61.21
2022-12-14T22:29:32.926Z,61.69
2022-12-14T22:31:59.703Z,62.08
2022-12-14T22:34:27.582Z,62.34
2022-12-14T22:36:54.223Z,62.21
2022-12-14T22:39:21.114Z,61.76
2022-12-14T22:41:49.505Z,61.84
2022-12-14T22:44:16.237Z,61.63
2022-12-14T22:46:42.889Z,61.20
2022-12-14T22:49:13.111Z,61.43
2022-12-14T22:51:39.715Z,61.67
2022-12-14T22:54:06.953Z,61.63
2022-12-14T22:56:41.058Z,61.15
2022-12-14T22:59:14.500Z,61.43
2022-12-14T23:01:42.317Z,61.16
2022-12-14T23:04:11.526Z,61.86
2022-12-14T23:06:39.066Z,62.03
2022-12-14T23:09:24.603Z,61.96
2022-12-14T23:12:11.661Z,62.15
2022-12-14T23:14:57.662Z,62.22
2022-12-14T23:17:43.425Z,62.75
2022-12-14T23:20:29.153Z,61.99
2022-12-14T23:23:14.450Z,62.19
2022-12-14T23:26:00.010Z,61.79
2022-12-14T23:28:49.872Z,61.89
2022-12-14T23:31:35.274Z,61.46
2022-12-14T23:34:20.707Z,60.99
2022-12-14T23:37:05.909Z,61.34
2022-12-14T23:39:52.756Z,61.30
2022-12-14T23:42:38.033Z,61.65
2022-12-14T23:45:24.796Z,62.12
2022-12-14T23:48:10.258Z,61.92
2022-12-14T23:50:55.693Z,61.42
2022-12-14T23:53:41.030Z,61.04
2022-12-14T23:56:26.385Z,61.16
2022-12-14T23:59:13.904Z,61.33
